This is the latest recevied weather packets stored in our database for station/object KA7EII-13. If no packets are shown the sender has not sent any weather packets the latest 1 day(s).
| Time | Temp. | Humidity | Pressure | Rain* | Wind** | Luminosity | Snow |
|---|---|---|---|---|---|---|---|
| 1778078254 | 5° C | 49% | 1109.1 hPa | 0 mm | - | 247 W/m² | - |
| 1778077650 | 5° C | 50% | 1109.3 hPa | 0 mm | - | 217 W/m² | - |
| 1778076441 | 2.22° C | 58% | 1108.7 hPa | 0 mm | - | 76 W/m² | - |
| 1778075834 | 1.67° C | 62% | 1108.7 hPa | 0 mm | - | 34 W/m² | - |
| 1778074621 | 1.11° C | 65% | 1109 hPa | 0 mm | - | 30 W/m² | - |
| 1778074318 | 1.11° C | 66% | 1109 hPa | 0 mm | - | 29 W/m² | - |
| 1778074015 | 1.11° C | 65% | 1108.6 hPa | 0 mm | - | 28 W/m² | - |
| 1778071593 | -0.56° C | 69% | 1108.2 hPa | 0 mm | - | 15 W/m² | - |
| 1778070988 | 0° C | 66% | 1108.2 hPa | 0 mm | - | 10 W/m² | - |
| 1778068869 | 0.56° C | 59% | 1108.1 hPa | 0 mm | - | 0 W/m² | - |
| 1778068568 | 0.56° C | 59% | 1107.8 hPa | 0 mm | - | 0 W/m² | - |
| 1778065844 | 0° C | 65% | 1107.6 hPa | 0 mm | - | 0 W/m² | - |
| 1778065542 | 0.56° C | 65% | 1107.7 hPa | 0 mm | - | 0 W/m² | - |
| 1778065239 | 0.56° C | 64% | 1107.7 hPa | 0 mm | - | 0 W/m² | - |
| 1778064935 | 0° C | 65% | 1107.7 hPa | 0 mm | - | 0 W/m² | - |
| 1778064028 | 0° C | 66% | 1107.8 hPa | 0 mm | - | 0 W/m² | - |
| 1778063725 | 0° C | 66% | 1107.5 hPa | 0 mm | - | 0 W/m² | - |
| 1778063120 | 0.56° C | 65% | 1107.4 hPa | 0 mm | - | 0 W/m² | - |
| 1778062817 | 0.56° C | 64% | 1107.3 hPa | 0 mm | - | 0 W/m² | - |
| 1778061909 | 1.11° C | 63% | 1107.3 hPa | 0 mm | - | 0 W/m² | - |
| 1778060699 | 1.67° C | 62% | 1107.4 hPa | 0 mm | - | 0 W/m² | - |
| 1778060396 | 1.67° C | 62% | 1107.4 hPa | 0 mm | - | 0 W/m² | - |
| 1778059186 | 0.56° C | 68% | 1107.5 hPa | 0 mm | - | 0 W/m² | - |
| 1778058884 | 1.11° C | 66% | 1107.5 hPa | 0 mm | - | 0 W/m² | - |
| 1778058279 | 1.67° C | 62% | 1107.1 hPa | 0 mm | - | 0 W/m² | - |
* Rain latest hour (hover to see other rain measurements)
** Current wind speed in m/s (hover to see current wind gust speed)